createdAt,value
2019-03-21T00:00:09.392Z,7.4
2019-03-21T00:05:11.593Z,7.3
2019-03-21T00:10:13.879Z,7.2
2019-03-21T00:15:16.098Z,7.1
2019-03-21T00:20:18.484Z,7
2019-03-21T00:25:20.767Z,7.1
2019-03-21T00:30:23.127Z,7.2
2019-03-21T00:35:26.281Z,7.1
2019-03-21T00:40:27.589Z,7.1
2019-03-21T00:45:31.340Z,7.1
2019-03-21T00:50:32.223Z,7.1
2019-03-21T00:55:34.492Z,7.2
2019-03-21T01:00:36.839Z,7.4
2019-03-21T01:05:39.066Z,7.5
2019-03-21T01:10:41.379Z,7.5
2019-03-21T01:15:43.631Z,7.5
2019-03-21T01:20:45.996Z,7.4
2019-03-21T01:25:48.369Z,7.4
2019-03-21T01:30:50.698Z,7.4
2019-03-21T01:35:52.795Z,7.4
2019-03-21T01:40:55.304Z,7.3
2019-03-21T01:45:57.453Z,7.3
2019-03-21T01:50:59.674Z,7.2
2019-03-21T01:56:02.204Z,7.1
2019-03-21T02:01:04.418Z,7
2019-03-21T02:06:06.708Z,7.1
2019-03-21T02:11:11.243Z,7
2019-03-21T02:16:12.320Z,7.1
2019-03-21T02:21:13.544Z,7.1
2019-03-21T02:26:15.917Z,7.1
2019-03-21T02:31:18.068Z,7.1
2019-03-21T02:36:20.422Z,7.1
2019-03-21T02:41:25.399Z,7
2019-03-21T03:02:10.265Z,6.9
2019-03-21T03:07:12.493Z,6.8
2019-03-21T03:12:14.811Z,6.8
2019-03-21T03:17:17.079Z,6.7
2019-03-21T03:22:19.493Z,6.6
2019-03-21T03:27:21.721Z,6.4
2019-03-21T03:32:24.001Z,6.4
2019-03-21T03:37:26.298Z,6.2
2019-03-21T03:42:28.611Z,6.1
2019-03-21T03:47:30.827Z,6.1
2019-03-21T03:52:33.216Z,6.1
2019-03-21T03:57:35.597Z,6.1
2019-03-21T04:02:37.733Z,6.1
2019-03-21T04:07:40.121Z,6.1
2019-03-21T04:12:42.609Z,6.1
2019-03-21T04:17:44.570Z,6.1
2019-03-21T04:22:46.929Z,6
2019-03-21T04:27:49.297Z,5.9
2019-03-21T04:32:52.708Z,5.8
2019-03-21T04:37:53.868Z,5.8
2019-03-21T04:42:56.073Z,5.8
2019-03-21T04:47:58.532Z,5.7
2019-03-21T04:53:00.698Z,5.7
2019-03-21T04:58:03.001Z,5.6
2019-03-21T05:03:05.239Z,5.5
2019-03-21T05:08:07.581Z,5.4
2019-03-21T05:13:09.797Z,5.3
2019-03-21T05:18:12.275Z,5.2
2019-03-21T05:23:14.471Z,5.2
2019-03-21T05:28:16.799Z,5.2
2019-03-21T05:33:19.108Z,5.2
2019-03-21T05:38:22.747Z,5.2
2019-03-21T05:43:23.767Z,5.2
2019-03-21T05:48:25.949Z,5.2
2019-03-21T05:53:28.278Z,5.2
2019-03-21T05:58:30.539Z,5.2
2019-03-21T06:03:32.882Z,5.3
2019-03-21T06:08:35.400Z,5.4
2019-03-21T06:13:37.504Z,5.6
2019-03-21T06:18:39.753Z,5.7
2019-03-21T06:23:43.204Z,5.9
2019-03-21T06:28:44.327Z,6.1
2019-03-21T06:33:46.722Z,6.4
2019-03-21T06:38:48.898Z,6.6
2019-03-21T06:43:51.254Z,6.5
2019-03-21T06:48:53.457Z,6.5
2019-03-21T06:53:55.834Z,6.9
2019-03-21T06:58:58.209Z,7.2
2019-03-21T07:04:07.032Z,7.6
2019-03-21T07:49:42.308Z,9.2
2019-03-21T07:54:44.832Z,9.4
2019-03-21T07:59:56.551Z,9.4
2019-03-21T08:04:56.659Z,9.3
2019-03-21T08:09:58.939Z,9.2
2019-03-21T08:15:01.186Z,9.2
2019-03-21T08:20:03.488Z,9.4
2019-03-21T08:25:19.820Z,9.4
2019-03-21T08:30:08.254Z,9.4
2019-03-21T08:35:48.946Z,9.4
2019-03-21T08:40:50.183Z,9.3
2019-03-21T08:45:54.361Z,9.2
2019-03-21T08:51:07.346Z,9
2019-03-21T08:55:58.223Z,9
2019-03-21T09:01:00.673Z,8.9
2019-03-21T09:06:01.566Z,8.9
2019-03-21T09:11:03.959Z,8.9
2019-03-21T09:16:06.186Z,9
2019-03-21T09:42:23.566Z,9.6
2019-03-21T09:47:25.906Z,9.9
2019-03-21T09:57:31.829Z,10.1
2019-03-21T10:02:32.864Z,10.1
2019-03-21T10:07:36.379Z,10.4
2019-03-21T10:12:37.359Z,10.6
2019-03-21T10:17:39.669Z,10.6
2019-03-21T10:22:41.868Z,10.6
2019-03-21T10:27:44.299Z,10.8
2019-03-21T10:32:46.588Z,11.3
2019-03-21T10:37:48.735Z,12
2019-03-21T10:42:51.138Z,12.5
2019-03-21T11:18:36.381Z,14
2019-03-21T11:29:18.385Z,14.6
2019-03-21T11:42:06.217Z,15.7
2019-03-21T12:07:40.888Z,16.6
2019-03-21T13:23:27.964Z,18.6
2019-03-21T15:12:39.645Z,19.200001
2019-03-21T15:55:49.659Z,18.700001
2019-03-21T16:00:52.033Z,18.799999
2019-03-21T16:24:21.986Z,18.9
2019-03-21T16:29:24.377Z,18.6
2019-03-21T16:34:26.644Z,18.700001
2019-03-21T16:47:37.000Z,17.5
2019-03-21T16:52:37.866Z,16.200001
2019-03-21T16:57:47.499Z,15.4
2019-03-21T17:02:44.610Z,14.8
2019-03-21T17:15:52.916Z,13.9
2019-03-21T17:20:51.986Z,13.6
2019-03-21T17:25:54.143Z,13.3
2019-03-21T17:30:56.489Z,13.2
2019-03-21T17:35:58.757Z,13
2019-03-21T17:41:01.062Z,12.7
2019-03-21T17:46:04.506Z,12.4
2019-03-21T17:51:05.564Z,12.2
2019-03-21T17:56:07.927Z,11.9
2019-03-21T18:01:10.328Z,11.7
2019-03-21T18:06:12.603Z,11.6
2019-03-21T18:11:14.840Z,11.5
2019-03-21T18:16:18.661Z,11.4
2019-03-21T18:21:19.341Z,11.2
2019-03-21T18:26:21.831Z,11
2019-03-21T18:31:23.968Z,10.9
2019-03-21T18:41:28.501Z,10.4
2019-03-21T18:46:30.897Z,10.1
2019-03-21T19:03:00.361Z,9.5
2019-03-21T19:08:00.988Z,9.3
2019-03-21T19:13:02.301Z,9.1
2019-03-21T19:18:04.473Z,9
2019-03-21T19:23:07.017Z,9
2019-03-21T19:28:09.110Z,8.9
2019-03-21T19:34:17.663Z,8.8
2019-03-21T19:39:49.191Z,8.7
2019-03-21T19:44:49.369Z,8.6
2019-03-21T19:49:52.706Z,8.5
2019-03-21T19:54:55.697Z,8.5
2019-03-21T19:59:56.306Z,8.4
2019-03-21T20:12:59.939Z,8.1
2019-03-21T20:18:00.094Z,8.1
2019-03-21T20:23:02.502Z,8.2
2019-03-21T20:28:04.682Z,8.2
2019-03-21T20:33:07.217Z,8.2
2019-03-21T20:38:13.833Z,8.2
2019-03-21T20:43:29.164Z,8.1
2019-03-21T20:48:13.881Z,8
2019-03-21T20:53:16.171Z,7.9
2019-03-21T20:58:18.569Z,7.9
2019-03-21T21:03:22.760Z,7.8
2019-03-21T21:08:23.117Z,7.7
2019-03-21T21:13:25.367Z,7.7
2019-03-21T21:20:03.723Z,7.6
2019-03-21T21:25:03.991Z,7.4
2019-03-21T21:36:33.095Z,7.3
2019-03-21T21:52:24.194Z,7.1
2019-03-21T21:57:23.643Z,7.1
2019-03-21T22:02:26.137Z,7
2019-03-21T22:07:27.250Z,7
2019-03-21T22:12:30.984Z,6.9
2019-03-21T22:17:31.645Z,6.7
2019-03-21T22:22:33.901Z,6.6
2019-03-21T22:27:36.429Z,6.5
2019-03-21T22:32:38.511Z,6.5
2019-03-21T22:37:41.041Z,6.5
2019-03-21T22:42:43.319Z,6.4
2019-03-21T22:47:45.499Z,6.4
2019-03-21T22:52:47.645Z,6.3
2019-03-21T22:57:49.963Z,6.2
2019-03-21T23:02:52.357Z,6.2
2019-03-21T23:07:54.682Z,6.1
2019-03-21T23:12:56.792Z,6.1
2019-03-21T23:17:59.154Z,6.1
2019-03-21T23:23:01.786Z,6.1
2019-03-21T23:28:03.948Z,6.1
2019-03-21T23:33:06.239Z,6
2019-03-21T23:38:08.320Z,6
2019-03-21T23:43:10.619Z,5.9
2019-03-21T23:48:14.809Z,5.7
2019-03-21T23:53:15.184Z,5.6
2019-03-21T23:58:17.460Z,5.6
